Time;durP1;ratioP1;P1;durP2;ratioP2;P2;SDS_P1;SDS_P2;PMS_P1;PMS_P2;Temp;Humidity;BMP_temperature;BMP_pressure;BME280_temperature;BME280_humidity;BME280_pressure;Samples;Min_cycle;Max_cycle;Signal;HPM_P1;HPM_P2
2020/12/28 00:02:07;;;;;;;112.70;42.90;;;;;;;;;;5022462;28;20105;-74
2020/12/28 00:04:33;;;;;;;141.48;49.33;;;;;;;;;;5017879;28;20065;-74
2020/12/28 00:06:59;;;;;;;101.30;40.83;;;;;;;;;;5006408;28;20037;-74
2020/12/28 00:09:25;;;;;;;99.05;39.78;;;;;;;;;;5021560;28;20407;-74
2020/12/28 00:11:55;;;;;;;91.30;39.72;;;;;;;;;;5013595;28;20072;-74
2020/12/28 00:14:21;;;;;;;79.70;37.90;;;;;;;;;;5015948;28;20080;-74
2020/12/28 00:16:47;;;;;;;104.40;43.25;;;;;;;;;;5019074;28;20044;-74
2020/12/28 00:19:13;;;;;;;101.18;42.30;;;;;;;;;;5009937;28;20025;-73
2020/12/28 00:21:39;;;;;;;119.15;44.28;;;;;;;;;;5021867;28;20026;-74
2020/12/28 00:24:05;;;;;;;98.93;42.58;;;;;;;;;;4995802;28;20032;-74
2020/12/28 00:26:35;;;;;;;113.80;44.53;;;;;;;;;;5017256;28;20091;-74
2020/12/28 00:29:01;;;;;;;135.88;48.80;;;;;;;;;;5015838;28;20387;-74
2020/12/28 00:31:27;;;;;;;126.22;45.67;;;;;;;;;;5017104;28;20038;-74
2020/12/28 00:33:53;;;;;;;119.07;43.78;;;;;;;;;;5017822;28;20045;-74
2020/12/28 00:36:19;;;;;;;128.00;45.38;;;;;;;;;;5012258;28;20018;-74
2020/12/28 00:38:45;;;;;;;87.05;38.47;;;;;;;;;;4998647;28;20022;-74
2020/12/28 00:41:12;;;;;;;86.55;38.00;;;;;;;;;;5016588;28;20021;-74
2020/12/28 00:43:40;;;;;;;72.90;33.85;;;;;;;;;;5025889;28;20567;-74
2020/12/28 00:46:07;;;;;;;74.55;34.17;;;;;;;;;;5011781;28;20471;-74
2020/12/28 00:48:33;;;;;;;78.97;33.70;;;;;;;;;;5007249;28;20387;-74
2020/12/28 00:50:59;;;;;;;72.90;34.78;;;;;;;;;;5017831;28;20032;-74
2020/12/28 00:53:25;;;;;;;74.40;33.95;;;;;;;;;;5006318;28;20053;-74
2020/12/28 00:55:51;;;;;;;80.20;34.15;;;;;;;;;;5023132;28;20037;-74
2020/12/28 00:58:17;;;;;;;99.57;37.13;;;;;;;;;;5016865;28;20026;-74
2020/12/28 01:00:42;;;;;;;75.18;31.90;;;;;;;;;;5022855;28;20368;-74
2020/12/28 01:03:08;;;;;;;84.57;34.05;;;;;;;;;;5002356;28;20471;-74
2020/12/28 01:05:34;;;;;;;92.97;36.97;;;;;;;;;;5009607;28;20397;-74
2020/12/28 01:08:00;;;;;;;60.47;30.15;;;;;;;;;;5011180;28;20115;-74
2020/12/28 01:10:26;;;;;;;70.10;29.45;;;;;;;;;;5024238;28;20746;-74
2020/12/28 01:12:52;;;;;;;71.75;32.00;;;;;;;;;;5004798;28;20022;-74
2020/12/28 01:15:18;;;;;;;70.13;31.80;;;;;;;;;;5020383;28;20026;-72
2020/12/28 01:17:44;;;;;;;67.50;31.17;;;;;;;;;;5017963;28;20026;-71
2020/12/28 01:20:10;;;;;;;72.60;30.75;;;;;;;;;;5025965;28;20479;-72
2020/12/28 01:22:36;;;;;;;68.03;31.90;;;;;;;;;;5011373;28;20116;-72
2020/12/28 01:25:02;;;;;;;65.28;29.35;;;;;;;;;;5018254;28;20139;-72
2020/12/28 01:27:28;;;;;;;82.63;34.33;;;;;;;;;;5018501;28;20053;-72
2020/12/28 01:29:54;;;;;;;85.55;35.60;;;;;;;;;;5000404;28;20080;-71
2020/12/28 01:32:19;;;;;;;65.35;30.42;;;;;;;;;;5008092;28;20029;-71
2020/12/28 01:34:45;;;;;;;60.70;30.45;;;;;;;;;;5017074;28;20052;-72
2020/12/28 01:37:11;;;;;;;63.80;31.05;;;;;;;;;;5022712;28;20116;-72
2020/12/28 01:39:39;;;;;;;65.07;32.03;;;;;;;;;;5024170;28;20053;-72
2020/12/28 01:42:05;;;;;;;66.57;30.67;;;;;;;;;;5018199;28;20542;-71
2020/12/28 01:44:31;;;;;;;78.05;30.95;;;;;;;;;;5010345;28;20021;-71
2020/12/28 01:46:57;;;;;;;76.47;32.20;;;;;;;;;;5011514;28;20079;-71
2020/12/28 01:49:22;;;;;;;73.82;32.17;;;;;;;;;;5018701;28;20075;-71
2020/12/28 01:51:49;;;;;;;91.20;33.33;;;;;;;;;;5014727;28;20044;-72
2020/12/28 01:54:15;;;;;;;90.47;35.88;;;;;;;;;;5022067;28;20022;-71
2020/12/28 01:56:42;;;;;;;75.00;32.00;;;;;;;;;;5022139;28;20030;-71
2020/12/28 01:59:08;;;;;;;88.60;34.25;;;;;;;;;;5023726;28;20021;-72
2020/12/28 02:01:41;;;;;;;91.38;37.35;;;;;;;;;;5009460;28;20030;-72
2020/12/28 02:04:08;;;;;;;95.32;34.92;;;;;;;;;;5031036;28;20029;-72
2020/12/28 02:06:34;;;;;;;115.80;39.40;;;;;;;;;;5038316;28;20545;-72
2020/12/28 02:09:00;;;;;;;89.90;35.28;;;;;;;;;;5021425;28;20086;-72
2020/12/28 02:11:29;;;;;;;84.70;35.45;;;;;;;;;;5033212;28;20044;-72
2020/12/28 02:13:55;;;;;;;90.13;35.97;;;;;;;;;;5011172;28;20057;-72
2020/12/28 02:16:21;;;;;;;96.53;37.95;;;;;;;;;;5022534;28;20101;-73
2020/12/28 02:18:47;;;;;;;120.85;40.97;;;;;;;;;;5003753;28;20113;-73
2020/12/28 02:21:13;;;;;;;112.68;40.92;;;;;;;;;;4999788;28;20038;-73
2020/12/28 02:23:41;;;;;;;110.93;41.40;;;;;;;;;;5001995;28;20160;-74
2020/12/28 02:26:07;;;;;;;117.70;39.58;;;;;;;;;;5008062;28;20025;-73
2020/12/28 02:28:33;;;;;;;115.30;41.85;;;;;;;;;;5017048;28;20048;-73
2020/12/28 02:30:59;;;;;;;119.03;42.50;;;;;;;;;;5006949;28;20022;-73
2020/12/28 02:33:25;;;;;;;130.63;41.80;;;;;;;;;;5019535;28;20054;-72
2020/12/28 02:35:50;;;;;;;171.00;46.95;;;;;;;;;;5010299;28;20435;-72
2020/12/28 02:38:16;;;;;;;138.27;45.00;;;;;;;;;;5009169;28;20519;-72
2020/12/28 02:40:42;;;;;;;117.65;41.65;;;;;;;;;;5004905;28;20026;-72
2020/12/28 02:43:08;;;;;;;157.75;48.28;;;;;;;;;;5020768;28;20030;-72
2020/12/28 02:45:34;;;;;;;168.82;51.50;;;;;;;;;;4993919;28;20048;-72
2020/12/28 02:48:00;;;;;;;128.77;45.83;;;;;;;;;;5017178;28;20049;-72
2020/12/28 02:50:26;;;;;;;142.13;47.50;;;;;;;;;;5017457;28;20029;-73
2020/12/28 02:52:53;;;;;;;137.48;45.15;;;;;;;;;;5017108;28;20033;-73
2020/12/28 02:55:20;;;;;;;157.60;50.20;;;;;;;;;;5005715;28;20030;-73
2020/12/28 02:57:46;;;;;;;138.60;46.97;;;;;;;;;;5018837;28;20079;-73
2020/12/28 03:00:12;;;;;;;151.25;46.97;;;;;;;;;;5024397;28;20021;-73
2020/12/28 03:02:38;;;;;;;147.70;47.50;;;;;;;;;;5012992;28;20029;-73
2020/12/28 03:05:05;;;;;;;143.25;45.92;;;;;;;;;;5027295;28;20441;-73
2020/12/28 03:07:30;;;;;;;144.57;45.38;;;;;;;;;;5018910;28;20041;-73
2020/12/28 03:09:57;;;;;;;155.00;45.75;;;;;;;;;;5020918;28;20071;-73
2020/12/28 03:12:23;;;;;;;146.45;45.50;;;;;;;;;;5011009;28;20029;-73
2020/12/28 03:14:49;;;;;;;135.35;43.50;;;;;;;;;;5013065;28;20044;-73
2020/12/28 03:17:15;;;;;;;155.88;49.20;;;;;;;;;;5007570;28;20025;-73
2020/12/28 03:19:41;;;;;;;148.57;45.65;;;;;;;;;;5008281;28;20489;-73
2020/12/28 03:22:07;;;;;;;151.73;44.63;;;;;;;;;;5013573;28;20109;-73
2020/12/28 03:24:34;;;;;;;124.65;45.13;;;;;;;;;;4992856;28;20537;-73
2020/12/28 03:27:03;;;;;;;142.40;43.60;;;;;;;;;;5028197;28;20450;-74
2020/12/28 03:29:30;;;;;;;122.55;42.60;;;;;;;;;;5013781;28;20422;-73
2020/12/28 03:31:56;;;;;;;134.80;43.58;;;;;;;;;;5027599;28;20037;-73
2020/12/28 03:34:22;;;;;;;153.05;43.05;;;;;;;;;;5014497;28;20038;-73
2020/12/28 03:36:48;;;;;;;136.65;43.97;;;;;;;;;;5021217;28;20041;-73
2020/12/28 03:39:14;;;;;;;150.70;45.80;;;;;;;;;;5002355;28;20094;-74
2020/12/28 03:41:39;;;;;;;141.52;43.95;;;;;;;;;;5012742;28;20025;-73
2020/12/28 03:44:05;;;;;;;120.85;42.80;;;;;;;;;;4992283;28;20117;-73
2020/12/28 03:46:31;;;;;;;129.35;43.53;;;;;;;;;;5017634;28;20038;-73
2020/12/28 03:48:57;;;;;;;136.50;45.50;;;;;;;;;;5022228;28;20709;-74
2020/12/28 03:51:23;;;;;;;139.60;44.15;;;;;;;;;;5026447;28;20501;-74
2020/12/28 03:53:51;;;;;;;146.30;47.25;;;;;;;;;;5046841;28;20370;-74
2020/12/28 03:56:17;;;;;;;125.97;40.65;;;;;;;;;;5045659;28;20039;-74
2020/12/28 03:58:43;;;;;;;131.68;41.40;;;;;;;;;;5040581;28;20081;-73
2020/12/28 04:01:09;;;;;;;118.82;38.50;;;;;;;;;;5032153;28;20030;-74
2020/12/28 04:03:35;;;;;;;144.48;40.83;;;;;;;;;;5029425;28;20032;-73
2020/12/28 04:06:01;;;;;;;124.03;38.50;;;;;;;;;;5022231;28;20026;-73
2020/12/28 04:08:28;;;;;;;117.30;39.22;;;;;;;;;;5015755;28;20033;-74
2020/12/28 04:10:54;;;;;;;138.35;40.58;;;;;;;;;;5039871;28;20033;-73
2020/12/28 04:13:20;;;;;;;118.28;37.28;;;;;;;;;;5035719;28;20033;-73
2020/12/28 04:15:46;;;;;;;127.10;39.92;;;;;;;;;;5025159;28;20030;-73
2020/12/28 04:18:12;;;;;;;109.78;36.33;;;;;;;;;;5007745;28;20155;-73
2020/12/28 04:20:38;;;;;;;119.53;38.50;;;;;;;;;;5025227;28;20101;-73
2020/12/28 04:23:04;;;;;;;134.82;39.22;;;;;;;;;;5012799;28;20036;-73
2020/12/28 04:25:30;;;;;;;114.90;36.05;;;;;;;;;;5020211;28;20038;-73
2020/12/28 04:27:56;;;;;;;117.95;37.90;;;;;;;;;;5014595;28;20034;-73
2020/12/28 04:30:21;;;;;;;122.75;35.45;;;;;;;;;;5012936;28;20029;-73
2020/12/28 04:32:47;;;;;;;124.47;38.78;;;;;;;;;;5012038;28;20033;-73
2020/12/28 04:35:13;;;;;;;120.13;35.75;;;;;;;;;;5024843;28;20112;-73
2020/12/28 04:37:39;;;;;;;150.00;42.72;;;;;;;;;;5024743;28;20030;-73
2020/12/28 04:40:05;;;;;;;139.43;43.13;;;;;;;;;;5010799;28;20025;-73
2020/12/28 04:42:32;;;;;;;140.25;43.95;;;;;;;;;;5021920;28;20056;-73
2020/12/28 04:44:58;;;;;;;171.07;47.47;;;;;;;;;;5027076;28;20026;-73
2020/12/28 04:47:25;;;;;;;157.82;47.75;;;;;;;;;;5019839;28;20540;-73
2020/12/28 04:49:51;;;;;;;164.63;47.47;;;;;;;;;;5017131;28;20116;-73
2020/12/28 04:52:17;;;;;;;158.93;47.60;;;;;;;;;;5050612;28;20029;-74
2020/12/28 04:54:43;;;;;;;181.13;48.97;;;;;;;;;;5045859;28;20033;-73
2020/12/28 04:57:10;;;;;;;163.65;47.58;;;;;;;;;;5012044;28;20026;-73
2020/12/28 04:59:36;;;;;;;193.45;52.95;;;;;;;;;;5028475;28;20029;-73
2020/12/28 05:02:02;;;;;;;197.95;50.22;;;;;;;;;;4999619;28;20072;-73
2020/12/28 05:04:28;;;;;;;157.38;48.47;;;;;;;;;;5030156;28;20116;-73
2020/12/28 05:06:57;;;;;;;159.07;44.75;;;;;;;;;;5016062;28;20181;-73
2020/12/28 05:09:23;;;;;;;143.15;42.72;;;;;;;;;;5030488;28;20037;-73
2020/12/28 05:11:54;;;;;;;168.88;46.50;;;;;;;;;;5025802;28;20494;-73
2020/12/28 05:14:20;;;;;;;169.55;46.45;;;;;;;;;;5021488;28;20210;-73
2020/12/28 05:16:46;;;;;;;184.32;46.67;;;;;;;;;;4995976;28;20042;-73
2020/12/28 05:19:12;;;;;;;162.13;47.50;;;;;;;;;;5019035;28;20490;-73
2020/12/28 05:21:38;;;;;;;168.23;48.85;;;;;;;;;;5019004;28;20029;-73
2020/12/28 05:24:11;;;;;;;166.95;46.85;;;;;;;;;;5029858;28;20029;-73
2020/12/28 05:26:40;;;;;;;172.82;46.40;;;;;;;;;;5023855;28;20034;-73
2020/12/28 05:29:09;;;;;;;174.73;48.58;;;;;;;;;;5022999;28;20040;-73
2020/12/28 05:31:35;;;;;;;174.20;49.95;;;;;;;;;;5011812;28;20036;-73
2020/12/28 05:34:01;;;;;;;177.75;49.95;;;;;;;;;;5012334;28;20406;-73
2020/12/28 05:36:27;;;;;;;189.23;50.03;;;;;;;;;;5016346;28;20030;-73
2020/12/28 05:38:53;;;;;;;171.30;49.17;;;;;;;;;;5030450;28;20030;-73
2020/12/28 05:41:26;;;;;;;154.48;46.60;;;;;;;;;;5012748;28;20018;-73
2020/12/28 05:43:52;;;;;;;157.98;45.90;;;;;;;;;;5030795;28;20022;-73
2020/12/28 05:46:24;;;;;;;147.10;44.80;;;;;;;;;;5017937;28;20033;-73
2020/12/28 05:48:54;;;;;;;136.65;43.83;;;;;;;;;;5010346;28;20454;-73
2020/12/28 05:51:20;;;;;;;144.20;44.45;;;;;;;;;;5038632;28;20572;-73
2020/12/28 05:53:48;;;;;;;110.30;40.47;;;;;;;;;;5019180;28;20029;-73
2020/12/28 05:56:14;;;;;;;129.45;43.58;;;;;;;;;;5029224;28;20327;-73
2020/12/28 05:58:44;;;;;;;116.38;41.97;;;;;;;;;;5010691;28;20033;-73
2020/12/28 06:01:11;;;;;;;117.15;39.38;;;;;;;;;;5006510;28;20040;-73
2020/12/28 06:03:41;;;;;;;99.15;38.13;;;;;;;;;;5039098;28;20112;-73
2020/12/28 06:06:07;;;;;;;102.82;39.58;;;;;;;;;;5010596;28;20037;-73
2020/12/28 06:08:33;;;;;;;96.60;36.15;;;;;;;;;;4996345;28;20033;-73
2020/12/28 06:11:03;;;;;;;102.80;38.13;;;;;;;;;;5029369;28;20035;-73
2020/12/28 06:13:29;;;;;;;103.57;37.33;;;;;;;;;;5030014;28;20057;-73
2020/12/28 06:16:03;;;;;;;93.20;37.22;;;;;;;;;;5022945;28;20123;-73
2020/12/28 06:18:29;;;;;;;87.13;34.45;;;;;;;;;;5029553;28;20026;-73
2020/12/28 06:20:55;;;;;;;85.40;32.47;;;;;;;;;;5039437;28;20490;-73
2020/12/28 06:23:27;;;;;;;81.95;33.38;;;;;;;;;;5018510;28;20097;-73
2020/12/28 06:25:56;;;;;;;88.00;34.80;;;;;;;;;;5012439;28;20431;-73
2020/12/28 06:28:28;;;;;;;87.07;35.33;;;;;;;;;;4999601;28;20022;-74
2020/12/28 06:31:06;;;;;;;91.55;36.13;;;;;;;;;;5013801;28;20060;-74
2020/12/28 06:33:33;;;;;;;85.47;33.97;;;;;;;;;;5010849;28;20498;-72
2020/12/28 06:35:59;;;;;;;74.78;32.13;;;;;;;;;;5013055;28;20033;-73
2020/12/28 06:38:25;;;;;;;85.13;33.20;;;;;;;;;;5026588;28;20022;-73
2020/12/28 06:40:51;;;;;;;84.32;32.47;;;;;;;;;;5020603;28;20030;-73
2020/12/28 06:43:18;;;;;;;90.03;34.05;;;;;;;;;;5025773;28;20053;-74
2020/12/28 06:45:49;;;;;;;68.88;29.92;;;;;;;;;;5030908;28;20178;-73
2020/12/28 06:48:22;;;;;;;76.90;30.15;;;;;;;;;;5025630;28;20080;-73
2020/12/28 06:50:48;;;;;;;72.97;29.48;;;;;;;;;;5012081;28;20033;-73
2020/12/28 06:53:19;;;;;;;71.80;28.90;;;;;;;;;;5011683;28;20550;-73
2020/12/28 06:55:45;;;;;;;70.15;28.13;;;;;;;;;;5011057;28;20033;-73
2020/12/28 06:58:13;;;;;;;67.85;27.60;;;;;;;;;;5012172;28;20022;-73
2020/12/28 07:00:39;;;;;;;74.57;28.65;;;;;;;;;;5008624;28;20018;-73
2020/12/28 07:03:11;;;;;;;64.65;27.25;;;;;;;;;;5008542;28;20037;-73
2020/12/28 07:05:37;;;;;;;84.20;29.88;;;;;;;;;;5020244;28;20021;-73
2020/12/28 07:08:03;;;;;;;64.68;25.98;;;;;;;;;;5013644;28;20135;-73
2020/12/28 07:10:29;;;;;;;62.58;25.15;;;;;;;;;;5025822;28;20498;-73
2020/12/28 07:13:01;;;;;;;69.43;26.02;;;;;;;;;;5005646;28;20034;-73
2020/12/28 07:15:27;;;;;;;68.28;26.42;;;;;;;;;;5018824;28;20026;-73
2020/12/28 07:17:53;;;;;;;60.33;24.60;;;;;;;;;;5034294;28;20034;-74
2020/12/28 07:20:19;;;;;;;66.55;29.70;;;;;;;;;;5041946;28;20033;-73
2020/12/28 07:22:45;;;;;;;73.28;25.98;;;;;;;;;;5041311;28;20078;-74
2020/12/28 07:25:12;;;;;;;74.43;27.05;;;;;;;;;;5069201;28;20033;-74
2020/12/28 07:27:41;;;;;;;63.15;23.50;;;;;;;;;;5042710;28;20109;-74
2020/12/28 07:30:08;;;;;;;51.60;22.40;;;;;;;;;;5044044;28;20016;-74
2020/12/28 07:32:34;;;;;;;58.58;24.35;;;;;;;;;;5057560;28;20044;-74
2020/12/28 07:35:00;;;;;;;51.17;21.70;;;;;;;;;;5038550;28;20037;-73
2020/12/28 07:37:28;;;;;;;63.13;25.58;;;;;;;;;;5067386;28;20013;-74
2020/12/28 07:39:53;;;;;;;51.80;21.00;;;;;;;;;;5061269;28;20053;-74
2020/12/28 07:42:23;;;;;;;47.83;20.45;;;;;;;;;;5056782;28;20030;-73
2020/12/28 07:44:57;;;;;;;49.88;21.90;;;;;;;;;;5036466;28;20085;-74
2020/12/28 07:47:38;;;;;;;42.42;20.67;;;;;;;;;;5036291;28;20037;-74
2020/12/28 07:50:05;;;;;;;43.40;20.35;;;;;;;;;;5026304;28;20479;-74
2020/12/28 07:52:33;;;;;;;46.00;21.33;;;;;;;;;;5034171;28;20030;-73
2020/12/28 07:55:00;;;;;;;40.70;18.80;;;;;;;;;;5035729;28;20025;-73
2020/12/28 07:57:33;;;;;;;35.25;17.30;;;;;;;;;;5045631;28;20029;-73
2020/12/28 08:00:06;;;;;;;34.50;15.93;;;;;;;;;;5068004;28;20032;-73
2020/12/28 08:02:51;;;;;;;28.33;14.23;;;;;;;;;;5028508;28;20041;-73
2020/12/28 08:05:18;;;;;;;34.17;16.17;;;;;;;;;;5047235;28;20022;-73
2020/12/28 08:07:44;;;;;;;34.72;15.52;;;;;;;;;;5028554;28;20037;-73
2020/12/28 08:10:10;;;;;;;33.10;14.80;;;;;;;;;;5038816;28;20017;-73
2020/12/28 08:12:39;;;;;;;32.00;15.32;;;;;;;;;;5054909;28;20029;-73
2020/12/28 08:15:05;;;;;;;29.92;15.32;;;;;;;;;;5025331;28;20033;-72
2020/12/28 08:17:31;;;;;;;31.48;15.25;;;;;;;;;;5012396;28;20030;-73
2020/12/28 08:20:13;;;;;;;40.28;16.23;;;;;;;;;;5011795;28;20030;-73
2020/12/28 08:22:40;;;;;;;38.00;16.38;;;;;;;;;;5019354;28;20022;-73
2020/12/28 08:25:07;;;;;;;34.17;17.23;;;;;;;;;;5044312;28;20030;-73
2020/12/28 08:27:33;;;;;;;33.17;15.73;;;;;;;;;;5031611;28;20044;-73
2020/12/28 08:30:00;;;;;;;43.03;19.10;;;;;;;;;;5026760;28;20029;-73
2020/12/28 08:32:27;;;;;;;41.67;18.42;;;;;;;;;;5020293;28;20036;-73
2020/12/28 08:34:54;;;;;;;37.40;17.35;;;;;;;;;;5012695;28;20033;-73
2020/12/28 08:37:20;;;;;;;39.83;18.33;;;;;;;;;;5013013;28;20116;-73
2020/12/28 08:39:46;;;;;;;31.05;15.18;;;;;;;;;;5028597;28;20368;-73
2020/12/28 08:42:13;;;;;;;37.75;15.90;;;;;;;;;;5010177;28;20025;-73
2020/12/28 08:44:41;;;;;;;31.23;15.13;;;;;;;;;;5022236;28;20044;-73
2020/12/28 08:47:11;;;;;;;27.05;14.05;;;;;;;;;;5023783;28;20044;-72
2020/12/28 08:49:37;;;;;;;22.00;12.88;;;;;;;;;;5017605;28;20040;-73
2020/12/28 08:52:07;;;;;;;22.70;11.98;;;;;;;;;;5035600;28;20406;-73
2020/12/28 08:54:33;;;;;;;22.73;12.15;;;;;;;;;;5029257;28;20036;-73
2020/12/28 08:56:59;;;;;;;27.42;12.98;;;;;;;;;;5023779;28;20026;-73
2020/12/28 08:59:25;;;;;;;28.80;13.50;;;;;;;;;;5008146;28;20085;-73
2020/12/28 09:01:52;;;;;;;29.50;13.30;;;;;;;;;;5010799;28;20041;-73
2020/12/28 09:04:18;;;;;;;23.70;11.43;;;;;;;;;;5022096;28;20037;-73
2020/12/28 09:06:44;;;;;;;24.15;11.10;;;;;;;;;;5026425;28;20056;-73
2020/12/28 09:09:10;;;;;;;21.92;9.73;;;;;;;;;;5019776;28;20080;-73
2020/12/28 09:11:36;;;;;;;27.23;10.32;;;;;;;;;;5014162;28;20029;-73
2020/12/28 09:14:02;;;;;;;23.33;11.52;;;;;;;;;;5026189;28;20448;-73
2020/12/28 09:16:28;;;;;;;22.45;10.07;;;;;;;;;;5022191;28;20108;-73
2020/12/28 09:18:54;;;;;;;19.27;9.52;;;;;;;;;;5043245;28;20036;-73
2020/12/28 09:21:21;;;;;;;20.95;10.13;;;;;;;;;;5000510;28;20056;-73
2020/12/28 09:23:47;;;;;;;21.27;10.88;;;;;;;;;;5020544;28;20075;-73
2020/12/28 09:26:13;;;;;;;19.38;9.90;;;;;;;;;;5013022;28;20109;-73
2020/12/28 09:28:39;;;;;;;22.75;10.85;;;;;;;;;;5018661;28;20467;-73
2020/12/28 09:31:05;;;;;;;25.33;12.90;;;;;;;;;;5014820;28;20030;-73
2020/12/28 09:33:32;;;;;;;19.10;10.88;;;;;;;;;;5009831;28;20113;-73
2020/12/28 09:35:58;;;;;;;21.73;12.50;;;;;;;;;;5009919;28;20030;-73
2020/12/28 09:38:24;;;;;;;19.52;10.40;;;;;;;;;;5023295;28;20026;-73
2020/12/28 09:40:50;;;;;;;24.17;11.70;;;;;;;;;;5020568;28;20410;-73
2020/12/28 09:43:16;;;;;;;22.52;12.00;;;;;;;;;;5026339;28;20022;-73
2020/12/28 09:45:42;;;;;;;26.10;11.43;;;;;;;;;;5009676;28;20033;-73
2020/12/28 09:48:08;;;;;;;18.73;9.90;;;;;;;;;;5009537;28;20037;-73
2020/12/28 09:50:36;;;;;;;22.00;11.30;;;;;;;;;;5031217;28;20032;-73
2020/12/28 09:53:02;;;;;;;19.10;9.82;;;;;;;;;;5029251;28;20038;-73
2020/12/28 09:55:28;;;;;;;15.75;7.90;;;;;;;;;;5026530;28;20033;-72
2020/12/28 09:57:54;;;;;;;14.63;7.93;;;;;;;;;;5034922;28;20032;-72
2020/12/28 10:00:20;;;;;;;21.63;8.20;;;;;;;;;;5036279;28;20106;-73
2020/12/28 10:02:46;;;;;;;16.20;7.78;;;;;;;;;;5023278;28;20472;-73
2020/12/28 10:05:12;;;;;;;20.33;7.15;;;;;;;;;;5020613;28;20037;-73
2020/12/28 10:07:39;;;;;;;12.10;6.53;;;;;;;;;;5007439;28;20038;-73
2020/12/28 10:10:05;;;;;;;15.43;6.80;;;;;;;;;;5011404;28;20696;-73
2020/12/28 10:12:31;;;;;;;24.00;7.90;;;;;;;;;;5001141;28;20516;-73
2020/12/28 10:14:57;;;;;;;12.98;5.68;;;;;;;;;;5009024;28;20095;-73
2020/12/28 10:17:23;;;;;;;13.73;5.80;;;;;;;;;;5009810;28;20095;-73
2020/12/28 10:19:49;;;;;;;13.00;5.50;;;;;;;;;;4997052;28;20022;-73
2020/12/28 10:22:16;;;;;;;12.88;5.63;;;;;;;;;;4995289;28;20081;-73
2020/12/28 10:24:42;;;;;;;26.85;5.80;;;;;;;;;;5005235;28;20037;-73
2020/12/28 10:27:08;;;;;;;12.98;5.47;;;;;;;;;;4979698;28;20034;-73
2020/12/28 10:29:34;;;;;;;12.35;5.20;;;;;;;;;;5002264;28;20145;-73
2020/12/28 10:32:00;;;;;;;11.05;4.68;;;;;;;;;;5008751;28;20042;-73
2020/12/28 10:34:26;;;;;;;13.55;5.25;;;;;;;;;;4990665;28;20505;-73
2020/12/28 10:36:52;;;;;;;13.25;4.72;;;;;;;;;;5007593;28;20034;-74
2020/12/28 10:39:18;;;;;;;8.48;4.00;;;;;;;;;;4998837;28;20042;-73
2020/12/28 10:41:44;;;;;;;17.35;6.68;;;;;;;;;;5001456;28;20022;-74
2020/12/28 10:44:10;;;;;;;12.93;4.75;;;;;;;;;;5000189;28;20026;-74
2020/12/28 10:46:38;;;;;;;16.02;5.82;;;;;;;;;;4994154;28;20023;-73
2020/12/28 10:49:07;;;;;;;11.18;5.55;;;;;;;;;;4996627;28;20034;-74
2020/12/28 10:51:34;;;;;;;14.33;5.00;;;;;;;;;;4985921;28;20037;-73
2020/12/28 10:54:00;;;;;;;15.70;4.88;;;;;;;;;;5008013;28;20872;-73
2020/12/28 10:56:30;;;;;;;8.98;4.10;;;;;;;;;;5007535;28;20133;-73
2020/12/28 10:58:57;;;;;;;12.77;5.15;;;;;;;;;;5008327;28;20067;-73
2020/12/28 11:01:23;;;;;;;10.25;4.88;;;;;;;;;;5008933;28;20025;-73
2020/12/28 11:03:50;;;;;;;9.82;3.90;;;;;;;;;;5009574;28;20022;-73
2020/12/28 11:06:17;;;;;;;10.85;4.15;;;;;;;;;;4997787;28;20034;-73
2020/12/28 11:08:43;;;;;;;10.55;3.92;;;;;;;;;;4998402;28;20042;-73
2020/12/28 11:11:09;;;;;;;11.48;3.97;;;;;;;;;;5003732;28;20034;-74
2020/12/28 11:13:35;;;;;;;13.63;3.92;;;;;;;;;;4986292;28;20476;-74
2020/12/28 11:16:01;;;;;;;10.88;3.38;;;;;;;;;;4991054;28;20048;-73
2020/12/28 11:18:27;;;;;;;11.52;3.40;;;;;;;;;;4985009;28;20022;-74
2020/12/28 11:20:54;;;;;;;6.72;2.58;;;;;;;;;;4984940;28;20124;-73
2020/12/28 11:23:20;;;;;;;14.15;3.20;;;;;;;;;;4991760;28;20026;-73
2020/12/28 11:25:46;;;;;;;4.72;2.92;;;;;;;;;;4988225;28;20088;-73
2020/12/28 11:28:12;;;;;;;9.02;2.88;;;;;;;;;;4996221;28;20122;-74
2020/12/28 11:30:38;;;;;;;9.43;2.75;;;;;;;;;;4985807;28;20052;-74
2020/12/28 11:33:04;;;;;;;8.02;2.92;;;;;;;;;;5007599;28;20033;-73
2020/12/28 11:35:31;;;;;;;10.23;2.97;;;;;;;;;;5007029;28;20551;-73
2020/12/28 11:37:57;;;;;;;7.45;3.38;;;;;;;;;;5005773;28;20435;-74
2020/12/28 11:40:23;;;;;;;9.13;2.78;;;;;;;;;;4995609;28;20026;-73
2020/12/28 11:42:49;;;;;;;9.30;3.85;;;;;;;;;;5004929;28;20061;-74
2020/12/28 11:45:15;;;;;;;8.05;2.53;;;;;;;;;;5006257;28;20041;-74
2020/12/28 11:47:41;;;;;;;7.18;2.97;;;;;;;;;;5006911;28;20161;-74
2020/12/28 11:50:08;;;;;;;5.68;2.13;;;;;;;;;;4995110;28;20434;-74
2020/12/28 11:52:34;;;;;;;14.85;2.95;;;;;;;;;;4979395;28;20038;-74
2020/12/28 11:55:00;;;;;;;7.22;2.70;;;;;;;;;;4998382;28;20104;-73
2020/12/28 11:57:26;;;;;;;7.55;2.33;;;;;;;;;;5006900;28;20105;-73
2020/12/28 11:59:52;;;;;;;9.23;3.17;;;;;;;;;;5006964;28;20030;-73
2020/12/28 12:02:21;;;;;;;8.23;2.88;;;;;;;;;;4998311;28;20030;-72
2020/12/28 12:04:51;;;;;;;10.60;2.70;;;;;;;;;;5004529;28;20026;-76
2020/12/28 12:07:21;;;;;;;9.27;2.53;;;;;;;;;;4990571;28;20022;-75
2020/12/28 12:09:48;;;;;;;6.22;2.17;;;;;;;;;;5005799;28;20092;-75
2020/12/28 12:12:14;;;;;;;9.02;2.65;;;;;;;;;;4993859;28;20133;-75
2020/12/28 12:14:41;;;;;;;10.38;3.30;;;;;;;;;;5008921;28;20108;-74
2020/12/28 12:17:08;;;;;;;6.55;3.05;;;;;;;;;;5010865;28;20028;-75
2020/12/28 12:19:34;;;;;;;8.57;2.40;;;;;;;;;;5010961;28;20095;-75
2020/12/28 12:22:00;;;;;;;12.30;2.08;;;;;;;;;;4992480;28;20096;-75
2020/12/28 12:24:26;;;;;;;7.18;2.60;;;;;;;;;;4996543;28;20026;-75
2020/12/28 12:26:52;;;;;;;6.53;2.17;;;;;;;;;;5011021;28;20117;-75
2020/12/28 12:29:18;;;;;;;11.05;3.83;;;;;;;;;;5010340;28;20065;-75
2020/12/28 12:31:44;;;;;;;11.15;3.33;;;;;;;;;;5010256;28;20053;-75
2020/12/28 12:34:13;;;;;;;6.70;2.50;;;;;;;;;;5010499;28;20033;-74
2020/12/28 12:36:39;;;;;;;7.88;2.15;;;;;;;;;;5009629;28;20018;-73
2020/12/28 12:39:05;;;;;;;4.95;2.35;;;;;;;;;;4992996;28;20092;-73
2020/12/28 12:41:31;;;;;;;8.60;2.33;;;;;;;;;;4994276;28;20584;-75
2020/12/28 12:43:56;;;;;;;7.43;2.13;;;;;;;;;;4992214;28;20026;-74
2020/12/28 12:46:22;;;;;;;5.13;2.63;;;;;;;;;;5009950;28;20036;-74
2020/12/28 12:48:48;;;;;;;4.93;2.63;;;;;;;;;;4992447;28;20041;-74
2020/12/28 12:51:14;;;;;;;8.75;2.65;;;;;;;;;;5023650;28;20029;-75
2020/12/28 12:53:40;;;;;;;9.88;4.43;;;;;;;;;;5010238;28;20112;-75
2020/12/28 12:56:06;;;;;;;11.60;4.22;;;;;;;;;;5023572;28;20741;-75
2020/12/28 12:58:33;;;;;;;9.05;3.70;;;;;;;;;;5010022;28;20018;-75
2020/12/28 13:00:59;;;;;;;6.63;2.78;;;;;;;;;;5009731;28;20396;-74
2020/12/28 13:03:25;;;;;;;10.30;3.58;;;;;;;;;;5008567;28;20030;-75
2020/12/28 13:05:51;;;;;;;7.05;3.33;;;;;;;;;;5009417;28;20044;-75
2020/12/28 13:08:18;;;;;;;6.75;3.35;;;;;;;;;;5008315;28;20034;-75
2020/12/28 13:10:44;;;;;;;7.38;3.50;;;;;;;;;;5007791;28;20040;-74
2020/12/28 13:13:10;;;;;;;7.70;2.47;;;;;;;;;;5008880;28;20034;-74
2020/12/28 13:15:36;;;;;;;5.50;3.20;;;;;;;;;;5009434;28;20032;-74
2020/12/28 13:18:03;;;;;;;9.40;3.17;;;;;;;;;;5005458;28;20022;-74
2020/12/28 13:20:29;;;;;;;12.23;3.55;;;;;;;;;;4991257;28;20026;-74
2020/12/28 13:22:55;;;;;;;9.20;4.57;;;;;;;;;;5009174;28;20372;-74
2020/12/28 13:25:21;;;;;;;10.07;4.35;;;;;;;;;;5004892;28;20026;-74
2020/12/28 13:27:47;;;;;;;8.07;3.08;;;;;;;;;;4992054;28;20030;-74
2020/12/28 13:30:13;;;;;;;7.43;2.15;;;;;;;;;;5009114;28;20038;-75
2020/12/28 13:32:40;;;;;;;5.13;2.35;;;;;;;;;;4998937;28;20168;-76
2020/12/28 13:35:06;;;;;;;4.35;1.80;;;;;;;;;;5010011;28;20107;-74
2020/12/28 13:37:32;;;;;;;7.13;3.63;;;;;;;;;;5008976;28;20096;-75
2020/12/28 13:39:58;;;;;;;7.05;3.72;;;;;;;;;;5004888;28;20499;-74
2020/12/28 13:42:24;;;;;;;9.95;2.92;;;;;;;;;;4999774;28;20030;-73
2020/12/28 13:44:50;;;;;;;5.60;2.97;;;;;;;;;;5008222;28;20487;-72
2020/12/28 13:47:16;;;;;;;5.68;2.92;;;;;;;;;;5001563;28;20044;-73
2020/12/28 13:49:42;;;;;;;5.65;2.85;;;;;;;;;;5003560;28;20105;-73
2020/12/28 13:52:08;;;;;;;8.38;2.40;;;;;;;;;;5004858;28;20034;-73
2020/12/28 13:54:34;;;;;;;7.15;3.03;;;;;;;;;;4997509;28;20379;-73
2020/12/28 13:57:01;;;;;;;10.93;2.58;;;;;;;;;;5000312;28;20471;-73
2020/12/28 13:59:27;;;;;;;6.30;2.65;;;;;;;;;;5009173;28;20026;-73
2020/12/28 14:01:53;;;;;;;6.35;2.90;;;;;;;;;;5009060;28;20037;-74
2020/12/28 14:04:19;;;;;;;7.85;3.13;;;;;;;;;;5009500;28;20466;-73
2020/12/28 14:06:45;;;;;;;7.45;2.30;;;;;;;;;;4980879;28;20026;-73
2020/12/28 14:09:11;;;;;;;8.77;2.78;;;;;;;;;;4991312;28;20107;-73
2020/12/28 14:11:37;;;;;;;7.95;2.78;;;;;;;;;;5007011;28;20057;-73
2020/12/28 14:14:03;;;;;;;6.13;2.33;;;;;;;;;;5008029;28;20030;-73
2020/12/28 14:16:29;;;;;;;5.57;2.70;;;;;;;;;;4991019;28;20134;-72